createdAt,value
2023-06-12T00:01:09.420Z,3.73
2023-06-12T00:03:36.348Z,3.37
2023-06-12T00:06:03.632Z,3.93
2023-06-12T00:08:31.770Z,4.37
2023-06-12T00:10:58.700Z,4.10
2023-06-12T00:13:25.398Z,3.77
2023-06-12T00:15:52.064Z,4.40
2023-06-12T00:18:18.955Z,3.80
2023-06-12T00:20:45.627Z,4.20
2023-06-12T00:23:13.027Z,4.53
2023-06-12T00:25:40.705Z,4.20
2023-06-12T00:28:07.525Z,4.30
2023-06-12T00:30:34.337Z,4.43
2023-06-12T00:33:01.478Z,4.50
2023-06-12T00:35:28.171Z,4.50
2023-06-12T00:37:56.350Z,4.20
2023-06-12T00:40:23.260Z,4.10
2023-06-12T00:42:51.432Z,4.93
2023-06-12T00:45:19.622Z,4.20
2023-06-12T00:47:47.377Z,4.30
2023-06-12T00:50:15.742Z,4.87
2023-06-12T00:52:44.744Z,4.43
2023-06-12T00:55:12.300Z,4.70
2023-06-12T00:57:39.412Z,4.27
2023-06-12T01:00:09.297Z,3.90
2023-06-12T01:02:40.416Z,4.13
2023-06-12T01:05:09.927Z,4.00
2023-06-12T01:07:45.160Z,3.43
2023-06-12T01:10:18.782Z,4.00
2023-06-12T01:12:46.269Z,3.83
2023-06-12T01:15:14.205Z,3.60
2023-06-12T01:17:42.367Z,3.97
2023-06-12T01:20:12.741Z,4.97
2023-06-12T01:22:44.516Z,5.53
2023-06-12T01:25:36.944Z,3.97
2023-06-12T01:28:14.307Z,3.77
2023-06-12T01:30:50.456Z,3.57
2023-06-12T01:33:19.366Z,3.73
2023-06-12T01:35:48.241Z,3.70
2023-06-12T01:38:19.234Z,3.47
2023-06-12T01:40:49.323Z,3.70
2023-06-12T01:43:17.162Z,3.43
2023-06-12T01:45:43.902Z,3.33
2023-06-12T01:48:11.301Z,3.30
2023-06-12T01:50:37.922Z,3.70
2023-06-12T01:53:04.976Z,3.40
2023-06-12T01:55:31.560Z,3.10
2023-06-12T01:57:58.549Z,3.50
2023-06-12T02:00:47.425Z,3.50
2023-06-12T02:03:14.483Z,3.90
2023-06-12T02:05:41.354Z,3.50
2023-06-12T02:08:08.707Z,3.73
2023-06-12T02:10:35.338Z,3.37
2023-06-12T02:13:03.264Z,3.50
2023-06-12T02:15:30.356Z,3.87
2023-06-12T02:17:56.941Z,3.27
2023-06-12T02:20:23.533Z,3.80
2023-06-12T02:22:50.161Z,3.70
2023-06-12T02:25:18.053Z,3.57
2023-06-12T02:27:44.824Z,3.80
2023-06-12T02:30:12.028Z,3.23
2023-06-12T02:32:40.276Z,3.17
2023-06-12T02:35:10.250Z,3.80
2023-06-12T02:37:37.966Z,3.30
2023-06-12T02:40:05.556Z,3.63
2023-06-12T02:42:32.158Z,3.57
2023-06-12T02:44:58.889Z,3.70
2023-06-12T02:47:25.599Z,3.70
2023-06-12T02:49:53.018Z,3.23
2023-06-12T02:52:23.446Z,3.53
2023-06-12T02:54:50.310Z,3.60
2023-06-12T02:57:17.141Z,3.90
2023-06-12T02:59:44.324Z,3.33
2023-06-12T03:02:16.597Z,3.87
2023-06-12T03:04:46.706Z,3.60
2023-06-12T03:07:16.497Z,3.20
2023-06-12T03:09:43.418Z,3.70
2023-06-12T03:12:11.159Z,3.60
2023-06-12T03:14:39.764Z,3.67
2023-06-12T03:17:06.806Z,3.93
2023-06-12T03:19:33.394Z,3.53
2023-06-12T03:22:00.352Z,3.70
2023-06-12T03:24:30.589Z,3.83
2023-06-12T03:27:01.133Z,4.00
2023-06-12T03:29:30.119Z,3.63
2023-06-12T03:31:56.856Z,3.30
2023-06-12T03:34:25.843Z,3.70
2023-06-12T03:36:53.304Z,3.80
2023-06-12T03:39:24.744Z,3.77
2023-06-12T03:41:52.541Z,3.60
2023-06-12T03:44:20.041Z,3.37
2023-06-12T03:46:48.151Z,3.60
2023-06-12T03:49:15.105Z,3.67
2023-06-12T03:51:42.476Z,3.83
2023-06-12T03:54:10.304Z,3.67
2023-06-12T03:56:36.978Z,3.47
2023-06-12T03:59:03.636Z,3.60
2023-06-12T04:01:30.278Z,3.67
2023-06-12T04:03:57.114Z,3.70
2023-06-12T04:06:25.668Z,3.90
2023-06-12T04:08:55.420Z,3.40
2023-06-12T04:11:23.148Z,3.60
2023-06-12T04:13:49.854Z,3.50
2023-06-12T04:16:16.541Z,3.90
2023-06-12T04:18:43.621Z,3.70
2023-06-12T04:21:10.370Z,3.80
2023-06-12T04:23:38.847Z,3.40
2023-06-12T04:26:06.114Z,3.73
2023-06-12T04:28:39.289Z,3.57
2023-06-12T04:31:06.075Z,3.67
2023-06-12T04:33:33.636Z,3.57
2023-06-12T04:36:03.190Z,3.83
2023-06-12T04:38:33.308Z,3.97
2023-06-12T04:41:00.175Z,4.00
2023-06-12T04:43:27.355Z,3.77
2023-06-12T04:45:57.868Z,4.07
2023-06-12T04:48:25.972Z,3.87
2023-06-12T04:50:56.186Z,3.50
2023-06-12T04:53:30.991Z,3.90
2023-06-12T04:55:58.251Z,3.57
2023-06-12T04:58:25.564Z,4.03
2023-06-12T05:00:56.784Z,3.90
2023-06-12T05:03:28.480Z,4.10
2023-06-12T05:05:56.870Z,4.03
2023-06-12T05:08:23.614Z,3.70
2023-06-12T05:10:51.430Z,4.10
2023-06-12T05:13:19.092Z,4.40
2023-06-12T05:15:46.658Z,3.93
2023-06-12T05:18:13.252Z,3.87
2023-06-12T05:20:41.481Z,3.83
2023-06-12T05:23:08.531Z,4.17
2023-06-12T05:25:35.792Z,4.13
2023-06-12T05:28:04.609Z,3.80
2023-06-12T05:30:32.768Z,4.10
2023-06-12T05:33:00.690Z,4.00
2023-06-12T05:35:27.421Z,4.07
2023-06-12T05:37:54.678Z,4.50
2023-06-12T05:40:21.657Z,4.53
2023-06-12T05:42:49.184Z,4.33
2023-06-12T05:45:16.089Z,4.37
2023-06-12T05:47:43.381Z,4.83
2023-06-12T05:50:10.690Z,4.97
2023-06-12T05:52:40.166Z,4.33
2023-06-12T05:55:07.354Z,4.30
2023-06-12T05:57:34.337Z,4.40
2023-06-12T06:00:01.183Z,4.50
2023-06-12T06:02:27.879Z,4.30
2023-06-12T06:04:55.417Z,4.90
2023-06-12T06:07:22.831Z,4.10
2023-06-12T06:09:50.143Z,4.47
2023-06-12T06:12:17.303Z,4.63
2023-06-12T06:14:44.065Z,4.73
2023-06-12T06:17:11.333Z,4.47
2023-06-12T06:19:38.071Z,4.80
2023-06-12T06:22:06.439Z,4.80
2023-06-12T06:24:33.911Z,4.87
2023-06-12T06:27:00.599Z,4.50
2023-06-12T06:29:27.338Z,4.63
2023-06-12T06:31:53.969Z,4.50
2023-06-12T06:34:21.342Z,4.80
2023-06-12T06:36:48.077Z,4.33
2023-06-12T06:39:14.731Z,5.07
2023-06-12T06:41:41.504Z,4.80
2023-06-12T06:44:08.144Z,4.93
2023-06-12T06:46:34.870Z,4.70
2023-06-12T06:49:01.919Z,5.17
2023-06-12T06:51:29.571Z,4.77
2023-06-12T06:53:56.282Z,5.10
2023-06-12T06:56:22.897Z,5.03
2023-06-12T06:58:49.901Z,4.90
2023-06-12T07:01:19.599Z,5.30
2023-06-12T07:03:48.359Z,5.00
2023-06-12T07:06:14.934Z,5.10
2023-06-12T07:08:42.252Z,5.20
2023-06-12T07:11:08.857Z,5.23
2023-06-12T07:13:36.295Z,5.30
2023-06-12T07:16:03.622Z,5.00
2023-06-12T07:18:30.317Z,4.90
2023-06-12T07:20:57.022Z,5.10
2023-06-12T07:23:23.714Z,5.53
2023-06-12T07:25:51.791Z,5.17
2023-06-12T07:28:18.613Z,4.97
2023-06-12T07:30:45.199Z,5.20
2023-06-12T07:33:13.020Z,4.60
2023-06-12T07:35:40.911Z,5.00
2023-06-12T07:38:07.592Z,4.90
2023-06-12T07:40:34.444Z,5.23
2023-06-12T07:43:03.442Z,5.30
2023-06-12T07:45:30.954Z,5.23
2023-06-12T07:47:58.910Z,4.30
2023-06-12T07:50:29.847Z,4.67
2023-06-12T07:52:57.104Z,4.23
2023-06-12T07:55:23.800Z,4.57
2023-06-12T07:57:53.089Z,4.67
2023-06-12T08:00:21.870Z,4.30
2023-06-12T08:02:56.299Z,4.80
2023-06-12T08:05:26.835Z,4.60
2023-06-12T08:07:55.013Z,4.43
2023-06-12T08:10:22.172Z,3.70
2023-06-12T08:12:49.560Z,3.43
2023-06-12T08:15:16.400Z,3.63
2023-06-12T08:17:43.281Z,3.40
2023-06-12T08:20:11.559Z,3.03
2023-06-12T08:22:39.035Z,3.60
2023-06-12T08:25:06.674Z,3.10
2023-06-12T08:27:35.037Z,3.23
2023-06-12T08:30:02.296Z,3.10
2023-06-12T08:32:29.256Z,3.13
2023-06-12T08:34:55.866Z,2.73
2023-06-12T08:37:22.598Z,2.97
2023-06-12T08:39:49.237Z,3.10
2023-06-12T08:42:16.664Z,2.83
2023-06-12T08:44:47.212Z,3.13
2023-06-12T08:47:17.620Z,3.10
2023-06-12T08:49:44.189Z,3.07
2023-06-12T08:52:11.672Z,2.80
2023-06-12T08:54:39.262Z,3.30
2023-06-12T08:57:09.522Z,3.30
2023-06-12T08:59:36.133Z,3.20
2023-06-12T09:02:13.367Z,2.93
2023-06-12T09:05:14.379Z,3.30
2023-06-12T09:07:43.302Z,3.10
2023-06-12T09:10:15.102Z,3.30
2023-06-12T09:12:44.623Z,3.30
2023-06-12T09:15:18.631Z,3.20
2023-06-12T09:17:52.408Z,3.17
2023-06-12T09:22:59.608Z,3.47
2023-06-12T09:25:36.477Z,3.30
2023-06-12T09:28:06.352Z,3.50
2023-06-12T09:30:33.331Z,3.47
2023-06-12T09:33:04.407Z,3.70
2023-06-12T09:35:31.178Z,4.47
2023-06-12T09:37:57.961Z,4.00
2023-06-12T09:40:24.591Z,3.50
2023-06-12T09:42:51.476Z,3.87
2023-06-12T09:45:19.231Z,3.80
2023-06-12T09:47:49.661Z,3.73
2023-06-12T09:50:17.501Z,3.63
2023-06-12T09:52:44.783Z,3.63
2023-06-12T09:55:13.434Z,3.30
2023-06-12T09:57:42.883Z,3.90
2023-06-12T10:00:12.937Z,3.73
2023-06-12T10:02:41.314Z,3.80
2023-06-12T10:05:13.108Z,4.13
2023-06-12T10:07:42.917Z,3.67
2023-06-12T10:10:09.845Z,4.00
2023-06-12T10:12:36.714Z,4.03
2023-06-12T10:15:04.635Z,3.67
2023-06-12T10:17:32.993Z,3.57
2023-06-12T10:20:00.248Z,3.50
2023-06-12T10:22:26.854Z,4.07
2023-06-12T10:24:53.760Z,3.80
2023-06-12T10:27:20.423Z,3.73
2023-06-12T10:29:55.069Z,3.40
2023-06-12T10:32:21.905Z,3.87
2023-06-12T10:34:49.592Z,4.17
2023-06-12T10:37:26.345Z,3.27
2023-06-12T10:40:09.032Z,3.77
2023-06-12T10:42:45.911Z,3.27
2023-06-12T10:45:15.588Z,3.37
2023-06-12T10:47:42.168Z,3.60
2023-06-12T10:50:09.328Z,3.50
2023-06-12T10:52:36.904Z,3.80
2023-06-12T10:55:20.251Z,3.60
2023-06-12T10:57:57.372Z,4.07
2023-06-12T11:00:25.254Z,3.50
2023-06-12T11:02:59.432Z,3.43
2023-06-12T11:05:27.908Z,3.73
2023-06-12T11:08:04.745Z,3.50
2023-06-12T11:10:32.026Z,3.30
2023-06-12T11:12:58.882Z,3.40
2023-06-12T11:15:25.697Z,3.40
2023-06-12T11:17:53.067Z,3.47
2023-06-12T11:20:20.625Z,3.27
2023-06-12T11:22:48.338Z,3.20
2023-06-12T11:25:15.702Z,3.37
2023-06-12T11:27:43.263Z,3.57
2023-06-12T11:30:30.630Z,3.60
2023-06-12T11:33:05.760Z,3.37
2023-06-12T11:35:32.409Z,3.50
2023-06-12T11:40:28.572Z,3.60
2023-06-12T11:42:55.564Z,3.33
2023-06-12T11:45:22.378Z,3.20
2023-06-12T11:50:21.073Z,3.40
2023-06-12T11:52:49.902Z,3.40
2023-06-12T11:57:51.053Z,3.67
2023-06-12T12:00:19.739Z,3.40
2023-06-12T12:02:47.614Z,3.00
2023-06-12T12:05:17.599Z,3.37
2023-06-12T12:07:47.582Z,3.57
2023-06-12T12:10:14.642Z,3.57
2023-06-12T12:12:50.318Z,3.70
2023-06-12T12:15:17.793Z,3.30
2023-06-12T12:17:44.958Z,3.37
2023-06-12T12:20:19.021Z,3.30
2023-06-12T12:23:05.048Z,3.30
2023-06-12T12:25:32.585Z,3.33
2023-06-12T12:28:05.044Z,3.47
2023-06-12T12:30:31.926Z,3.20
2023-06-12T12:32:59.294Z,3.70
2023-06-12T12:35:26.668Z,3.43
2023-06-12T12:37:54.783Z,3.23
2023-06-12T12:40:24.328Z,3.20
2023-06-12T12:42:51.554Z,3.10
2023-06-12T12:45:19.457Z,3.50
2023-06-12T12:47:49.188Z,3.50
2023-06-12T12:50:22.336Z,3.63
2023-06-12T12:52:52.018Z,3.60
2023-06-12T12:55:18.896Z,3.20
2023-06-12T12:57:46.622Z,3.67
2023-06-12T13:00:14.398Z,3.23
2023-06-12T13:02:42.199Z,3.30
2023-06-12T13:05:13.396Z,3.17
2023-06-12T13:07:40.865Z,3.25
2023-06-12T13:10:08.413Z,3.00
2023-06-12T13:12:35.251Z,2.88
2023-06-12T13:15:01.884Z,2.95
2023-06-12T13:17:29.140Z,2.75
2023-06-12T13:19:55.810Z,3.05
2023-06-12T13:22:22.534Z,3.00
2023-06-12T13:24:49.152Z,2.60
2023-06-12T13:27:15.791Z,2.92
2023-06-12T13:29:42.386Z,2.85
2023-06-12T13:32:09.231Z,2.88
2023-06-12T13:34:36.114Z,2.78
2023-06-12T13:37:02.908Z,3.03
2023-06-12T13:39:29.597Z,2.80
2023-06-12T13:41:58.014Z,3.20
2023-06-12T13:44:24.885Z,3.20
2023-06-12T13:46:51.944Z,2.85
2023-06-12T13:49:18.736Z,3.00
2023-06-12T13:51:45.361Z,3.20
2023-06-12T13:54:11.973Z,3.58
2023-06-12T13:56:39.750Z,3.40
2023-06-12T13:59:06.373Z,3.30
2023-06-12T14:01:33.024Z,3.20
2023-06-12T14:04:01.698Z,3.25
2023-06-12T14:06:29.096Z,3.28
2023-06-12T14:08:56.024Z,3.20
2023-06-12T14:11:22.646Z,3.42
2023-06-12T14:13:50.831Z,3.03
2023-06-12T14:16:18.352Z,3.25
2023-06-12T14:18:46.108Z,3.05
2023-06-12T14:21:12.976Z,3.20
2023-06-12T14:23:46.355Z,2.92
2023-06-12T14:26:16.252Z,3.40
2023-06-12T14:28:42.843Z,3.78
2023-06-12T14:31:09.722Z,3.25
2023-06-12T14:33:39.506Z,3.28
2023-06-12T14:36:07.025Z,3.10
2023-06-12T14:38:34.011Z,3.20
2023-06-12T14:41:00.581Z,3.22
2023-06-12T14:43:27.168Z,3.05
2023-06-12T14:45:53.902Z,3.40
2023-06-12T14:48:20.908Z,3.42
2023-06-12T14:50:47.728Z,3.42
2023-06-12T14:53:14.481Z,4.00
2023-06-12T14:55:43.786Z,3.53
2023-06-12T14:58:11.534Z,3.20
2023-06-12T15:00:38.754Z,3.38
2023-06-12T15:03:05.838Z,3.40
2023-06-12T15:05:32.813Z,3.80
2023-06-12T15:07:59.782Z,3.30
2023-06-12T15:10:26.842Z,3.30
2023-06-12T15:13:07.732Z,3.47
2023-06-12T15:15:36.832Z,3.55
2023-06-12T15:18:03.894Z,3.47
2023-06-12T15:20:30.571Z,3.40
2023-06-12T15:22:57.164Z,3.40
2023-06-12T15:25:23.746Z,3.38
2023-06-12T15:27:50.467Z,3.22
2023-06-12T15:30:18.178Z,3.63
2023-06-12T15:32:47.560Z,3.30
2023-06-12T15:35:14.976Z,3.67
2023-06-12T15:37:42.188Z,3.20
2023-06-12T15:40:10.021Z,3.78
2023-06-12T15:42:40.027Z,3.50
2023-06-12T15:45:07.501Z,3.60
2023-06-12T15:47:34.208Z,3.17
2023-06-12T15:50:01.200Z,3.23
2023-06-12T15:52:27.999Z,3.38
2023-06-12T15:54:55.024Z,3.60
2023-06-12T15:57:23.146Z,3.60
2023-06-12T15:59:50.508Z,3.00
2023-06-12T16:02:17.249Z,3.33
2023-06-12T16:04:44.029Z,3.77
2023-06-12T16:07:10.759Z,3.55
2023-06-12T16:09:37.442Z,3.70
2023-06-12T16:12:04.192Z,3.47
2023-06-12T16:14:30.856Z,3.30
2023-06-12T16:17:00.354Z,3.40
2023-06-12T16:19:27.418Z,3.67
2023-06-12T16:21:54.030Z,3.33
2023-06-12T16:24:20.786Z,3.50
2023-06-12T16:26:47.365Z,3.13
2023-06-12T16:29:14.163Z,3.20
2023-06-12T16:31:40.966Z,3.60
2023-06-12T16:34:07.587Z,3.20
2023-06-12T16:36:36.005Z,3.50
2023-06-12T16:39:04.398Z,3.20
2023-06-12T16:41:31.344Z,3.30
2023-06-12T16:43:58.008Z,3.47
2023-06-12T16:46:26.337Z,3.53
2023-06-12T16:48:53.066Z,3.03
2023-06-12T16:51:25.032Z,3.60
2023-06-12T16:53:52.175Z,3.20
2023-06-12T16:56:19.084Z,3.60
2023-06-12T16:58:45.693Z,3.40
2023-06-12T17:01:12.487Z,3.47
2023-06-12T17:03:41.093Z,3.03
2023-06-12T17:06:10.300Z,3.47
2023-06-12T17:08:37.543Z,3.50
2023-06-12T17:11:07.055Z,3.57
2023-06-12T17:13:34.218Z,3.60
2023-06-12T17:16:00.836Z,3.10
2023-06-12T17:18:28.458Z,3.65
2023-06-12T17:20:55.429Z,3.20
2023-06-12T17:23:22.040Z,3.20
2023-06-12T17:25:48.618Z,3.33
2023-06-12T17:28:15.280Z,3.08
2023-06-12T17:30:42.022Z,3.22
2023-06-12T17:33:08.688Z,3.10
2023-06-12T17:35:35.355Z,3.33
2023-06-12T17:38:02.039Z,3.45
2023-06-12T17:40:28.753Z,3.00
2023-06-12T17:42:55.423Z,3.38
2023-06-12T17:45:22.204Z,3.10
2023-06-12T17:47:49.463Z,3.20
2023-06-12T17:50:16.499Z,3.22
2023-06-12T17:52:43.310Z,3.30
2023-06-12T17:55:09.950Z,3.30
2023-06-12T17:57:36.584Z,3.30
2023-06-12T18:00:05.048Z,2.97
2023-06-12T18:02:31.630Z,3.37
2023-06-12T18:04:58.255Z,3.20
2023-06-12T18:07:24.871Z,3.40
2023-06-12T18:09:51.440Z,3.60
2023-06-12T18:12:18.690Z,3.57
2023-06-12T18:14:45.700Z,3.30
2023-06-12T18:17:13.698Z,3.20
2023-06-12T18:19:40.762Z,3.30
2023-06-12T18:22:07.405Z,3.47
2023-06-12T18:24:34.156Z,3.80
2023-06-12T18:27:00.809Z,4.50
2023-06-12T18:29:27.412Z,4.23
2023-06-12T18:31:54.146Z,4.10
2023-06-12T18:34:20.748Z,4.40
2023-06-12T18:36:47.570Z,3.67
2023-06-12T18:39:14.715Z,4.10
2023-06-12T18:41:41.339Z,3.60
2023-06-12T18:44:08.730Z,3.33
2023-06-12T18:46:35.538Z,3.57
2023-06-12T18:49:04.161Z,3.47
2023-06-12T18:51:31.411Z,3.20
2023-06-12T18:53:59.196Z,3.47
2023-06-12T18:56:33.385Z,3.10
2023-06-12T18:59:01.495Z,3.23
2023-06-12T19:01:28.693Z,3.43
2023-06-12T19:03:55.575Z,3.43
2023-06-12T19:06:22.244Z,3.07
2023-06-12T19:08:49.331Z,3.50
2023-06-12T19:11:16.123Z,3.17
2023-06-12T19:13:42.818Z,3.40
2023-06-12T19:16:09.456Z,3.63
2023-06-12T19:18:36.102Z,3.30
2023-06-12T19:21:02.755Z,3.40
2023-06-12T19:23:29.469Z,3.47
2023-06-12T19:25:56.074Z,3.70
2023-06-12T19:28:22.704Z,3.50
2023-06-12T19:30:49.312Z,3.80
2023-06-12T19:33:16.037Z,3.87
2023-06-12T19:35:42.646Z,3.80
2023-06-12T19:38:09.288Z,3.93
2023-06-12T19:40:35.977Z,3.97
2023-06-12T19:43:02.872Z,3.87
2023-06-12T19:45:30.934Z,4.30
2023-06-12T19:47:57.629Z,4.23
2023-06-12T19:50:24.248Z,4.00
2023-06-12T19:52:51.033Z,4.10
2023-06-12T19:55:17.944Z,4.30
2023-06-12T19:57:45.476Z,4.03
2023-06-12T20:00:12.813Z,3.83
2023-06-12T20:02:39.886Z,3.87
2023-06-12T20:05:06.797Z,4.30
2023-06-12T20:07:33.634Z,4.30
2023-06-12T20:10:04.102Z,4.50
2023-06-12T20:12:31.532Z,4.30
2023-06-12T20:14:58.375Z,4.40
2023-06-12T20:17:25.228Z,4.33
2023-06-12T20:19:51.860Z,4.80
2023-06-12T20:22:18.792Z,4.10
2023-06-12T20:24:45.651Z,4.53
2023-06-12T20:27:12.549Z,4.27
2023-06-12T20:29:41.768Z,4.93
2023-06-12T20:32:09.175Z,5.23
2023-06-12T20:34:36.102Z,5.00
2023-06-12T20:37:02.862Z,4.27
2023-06-12T20:39:29.744Z,5.00
2023-06-12T20:41:56.559Z,4.37
2023-06-12T20:44:23.880Z,4.43
2023-06-12T20:46:50.667Z,4.33
2023-06-12T20:49:17.919Z,4.80
2023-06-12T20:51:44.643Z,4.77
2023-06-12T20:54:11.381Z,5.13
2023-06-12T20:56:38.002Z,5.13
2023-06-12T20:59:04.788Z,5.53
2023-06-12T21:01:31.389Z,5.20
2023-06-12T21:03:58.034Z,5.33
2023-06-12T21:06:24.941Z,5.40
2023-06-12T21:09:00.731Z,5.30
2023-06-12T21:11:28.270Z,5.13
2023-06-12T21:13:55.160Z,5.70
2023-06-12T21:16:21.756Z,5.37
2023-06-12T21:18:48.957Z,5.33
2023-06-12T21:21:15.564Z,5.40
2023-06-12T21:23:42.161Z,5.30
2023-06-12T21:26:08.806Z,6.47
2023-06-12T21:28:35.531Z,6.00
2023-06-12T21:31:02.239Z,5.50
2023-06-12T21:33:28.836Z,5.90
2023-06-12T21:35:55.618Z,5.60
2023-06-12T21:38:22.999Z,6.20
2023-06-12T21:40:49.639Z,6.20
2023-06-12T21:43:16.214Z,6.20
2023-06-12T21:45:42.861Z,6.07
2023-06-12T21:48:09.587Z,5.93
2023-06-12T21:50:36.261Z,5.80
2023-06-12T21:53:02.852Z,6.57
2023-06-12T21:55:29.409Z,6.20
2023-06-12T21:57:56.078Z,6.23
2023-06-12T22:00:23.971Z,6.10
2023-06-12T22:02:51.148Z,6.43
2023-06-12T22:05:18.274Z,6.03
2023-06-12T22:07:45.143Z,6.00
2023-06-12T22:10:11.971Z,6.93
2023-06-12T22:12:38.753Z,6.87
2023-06-12T22:15:06.185Z,6.37
2023-06-12T22:17:33.048Z,6.20
2023-06-12T22:19:59.957Z,6.97
2023-06-12T22:22:26.858Z,7.00
2023-06-12T22:24:53.427Z,6.60
2023-06-12T22:27:20.029Z,6.33
2023-06-12T22:29:46.674Z,6.70
2023-06-12T22:32:13.334Z,6.70
2023-06-12T22:34:40.518Z,7.27
2023-06-12T22:37:07.095Z,7.10
2023-06-12T22:39:34.533Z,7.47
2023-06-12T22:42:01.162Z,7.40
2023-06-12T22:44:27.752Z,6.87
2023-06-12T22:46:54.566Z,7.47
2023-06-12T22:49:23.025Z,7.00
2023-06-12T22:51:49.675Z,7.57
2023-06-12T22:54:16.271Z,7.40
2023-06-12T22:56:42.883Z,7.20
2023-06-12T22:59:09.430Z,7.50
2023-06-12T23:01:36.126Z,7.43
2023-06-12T23:04:02.804Z,7.13
2023-06-12T23:06:29.460Z,7.23
2023-06-12T23:08:56.095Z,6.97
2023-06-12T23:11:22.671Z,7.53
2023-06-12T23:13:51.082Z,6.87
2023-06-12T23:16:18.986Z,6.37
2023-06-12T23:18:46.159Z,6.40
2023-06-12T23:21:13.697Z,6.50
2023-06-12T23:23:44.940Z,7.00
2023-06-12T23:26:11.756Z,6.73
2023-06-12T23:28:38.756Z,6.90
2023-06-12T23:31:05.385Z,6.53
2023-06-12T23:33:32.202Z,6.70
2023-06-12T23:35:59.094Z,6.20
2023-06-12T23:38:25.788Z,6.70
2023-06-12T23:40:52.414Z,7.00
2023-06-12T23:43:18.999Z,6.53
2023-06-12T23:45:45.742Z,7.23
2023-06-12T23:48:12.404Z,7.70
2023-06-12T23:50:38.981Z,7.83
2023-06-12T23:53:05.632Z,8.03
2023-06-12T23:55:32.180Z,8.07
2023-06-12T23:57:58.776Z,8.20
